»·PEaware :: N142DA KSBA-KPOC

N142DA :: KSBA-KPOC

FLIGHT INFORMATION

Flight Status: Arrived
Operator: Privately registered:
United States
More flights under this callsign
Pilot: Andrew O. (43595)
Aircraft: BEECH AIRCRAFT BONANZA
(BE35)
More flights by this aircraft type
Origin: KSBA Santa Barbara Mun
United States
Destination: KPOC Brackett
United States
More flights between these airports :: More routes between these airports
Route:
File this flight plan on PilotEdge
Remarks:
Altitude:
(Current/Filed)
7,500ft
Speed:
(Current/Filed)
0kts
Departed: 10-Oct-23 08:48 PM
Arrived: 10-Oct-23 09:34 PM
Distance/Time
Traveled:
104nm/0:45
Distance/Time
To Go:
Arrived

Flight Plot

Page will automatically refresh every two minutes.

Flight plan parsing failed; only flown route is shown


Map Options




Map Legend


Flown Route
Filed Route
Departure Airport
Arrival Airport
Navaid (VOR, NDB)
Fix

Horizontal Profiles

Position Reports

Time Latitude Longitude Heading Altitude Ground
Speed
10-Oct-23 20:41 34.432866 -119.835211 77 17ft 0kts
10-Oct-23 20:42 34.432866 -119.835211 77 17ft 0kts
10-Oct-23 20:43 34.432866 -119.835211 77 17ft 0kts
10-Oct-23 20:44 34.432846 -119.835170 149 17ft 2kts
10-Oct-23 20:45 34.431038 -119.838729 253 12ft 14kts
10-Oct-23 20:46 34.430768 -119.839602 247 11ft 0kts
10-Oct-23 20:47 34.429140 -119.839878 165 14ft 44kts
10-Oct-23 20:48 34.403310 -119.831299 168 1064ft 109kts
10-Oct-23 20:49 34.382013 -119.808622 107 2401ft 114kts
10-Oct-23 20:50 34.379123 -119.769799 91 3742ft 114kts
10-Oct-23 20:51 34.378334 -119.730917 91 4986ft 118kts
10-Oct-23 20:52 34.377461 -119.691152 91 6163ft 116kts
10-Oct-23 20:53 34.376593 -119.652556 91 7256ft 115kts
10-Oct-23 20:54 34.375553 -119.608021 91 7512ft 150kts
10-Oct-23 20:55 34.374243 -119.555775 92 7511ft 158kts
10-Oct-23 20:56 34.373064 -119.502300 91 7511ft 159kts
10-Oct-23 20:57 34.371780 -119.448779 91 7511ft 160kts
10-Oct-23 20:58 34.370449 -119.394477 91 7507ft 161kts
10-Oct-23 20:59 34.369103 -119.340443 91 7509ft 159kts
10-Oct-23 21:00 34.367732 -119.286564 91 7509ft 160kts
10-Oct-23 21:01 34.366343 -119.232627 91 7509ft 160kts
10-Oct-23 21:02 34.364931 -119.178871 91 7510ft 160kts
10-Oct-23 21:03 34.363488 -119.125031 92 7509ft 160kts
10-Oct-23 21:04 34.362025 -119.071109 92 7510ft 160kts
10-Oct-23 21:05 34.360543 -119.017439 92 7509ft 159kts
10-Oct-23 21:06 34.359035 -118.963667 92 7509ft 160kts
10-Oct-23 21:07 34.357507 -118.909972 92 7510ft 160kts
10-Oct-23 21:08 34.353061 -118.856510 100 7509ft 160kts
10-Oct-23 21:09 34.345197 -118.803020 100 7509ft 161kts
10-Oct-23 21:10 34.337403 -118.750070 100 7508ft 159kts
10-Oct-23 21:11 34.329584 -118.697112 100 7508ft 159kts
10-Oct-23 21:12 34.321723 -118.644096 100 7506ft 160kts
10-Oct-23 21:13 34.313822 -118.590892 100 7505ft 161kts
10-Oct-23 21:14 34.305882 -118.537641 100 7510ft 160kts
10-Oct-23 21:15 34.297949 -118.484594 100 7509ft 160kts
10-Oct-23 21:16 34.289131 -118.432007 101 7509ft 159kts
10-Oct-23 21:17 34.280250 -118.379332 101 7508ft 159kts
10-Oct-23 21:18 34.268835 -118.327820 124 7504ft 158kts
10-Oct-23 21:19 34.246431 -118.278464 118 6726ft 166kts
10-Oct-23 21:20 34.224594 -118.229899 118 5650ft 162kts
10-Oct-23 21:21 34.204020 -118.184189 119 5501ft 152kts
10-Oct-23 21:22 34.183640 -118.138984 119 5500ft 153kts
10-Oct-23 21:23 34.161908 -118.090869 119 4795ft 165kts
10-Oct-23 21:24 34.140695 -118.043868 117 3796ft 156kts
10-Oct-23 21:25 34.131819 -117.995881 103 3498ft 140kts
10-Oct-23 21:26 34.123107 -117.949278 102 3492ft 138kts
10-Oct-23 21:27 34.118991 -117.904504 89 3321ft 133kts
10-Oct-23 21:28 34.117850 -117.860618 95 2770ft 132kts
10-Oct-23 21:29 34.112129 -117.818796 91 2453ft 116kts
10-Oct-23 21:30 34.109035 -117.783935 105 2001ft 96kts
10-Oct-23 21:31 34.099785 -117.756771 180 1738ft 85kts
10-Oct-23 21:32 34.091018 -117.775987 273 1025ft 64kts
10-Oct-23 21:33 34.090853 -117.782472 230 997ft 0kts
10-Oct-23 21:34 34.089865 -117.781363 183 996ft 9kts
10-Oct-23 21:35 34.089609 -117.781501 275 996ft 0kts

Navigation Log

Ident Type
Flight plan parsing failed, navigation log unavailable